Time;durP1;ratioP1;P1;durP2;ratioP2;P2;SDS_P1;SDS_P2;PMS_P1;PMS_P2;Temp;Humidity;BMP_temperature;BMP_pressure;BME280_temperature;BME280_humidity;BME280_pressure;Samples;Min_cycle;Max_cycle;Signal;HPM_P1;HPM_P2
2022/01/29 00:00:47;;;;;;;8.249999;5.1;;;;;;;1.25;91.24219;96739.74;;;;
2022/01/29 00:01:48;;;;;;;8.249999;5.1;;;;;;;1.25;91.24219;96739.74;;;;
2022/01/29 00:02:48;;;;;;;8.249999;5.1;;;;;;;1.25;91.24219;96739.74;;;;
2022/01/29 00:03:49;;;;;;;8.249999;5.1;;;;;;;1.25;91.24219;96739.74;;;;
2022/01/29 00:04:50;;;;;;;8.249999;5.1;;;;;;;1.25;91.24219;96739.74;;;;
2022/01/29 00:05:50;;;;;;;8.249999;5.1;;;;;;;1.25;91.24219;96739.74;;;;
2022/01/29 00:06:51;;;;;;;8.249999;5.1;;;;;;;1.25;91.24219;96739.74;;;;
2022/01/29 00:07:51;;;;;;;8.249999;5.1;;;;;;;1.25;91.24219;96739.74;;;;
2022/01/29 00:08:53;;;;;;;8.249999;5.1;;;;;;;1.25;91.24219;96739.74;;;;
2022/01/29 00:10:01;;;;;;;8.249999;5.1;;;;;;;1.25;91.24219;96739.74;;;;
2022/01/29 00:11:09;;;;;;;8.55;4.95;;;;;;;1.24;91.25195;96723.02;;;;
2022/01/29 00:12:10;;;;;;;8.55;4.95;;;;;;;1.24;91.25195;96723.02;;;;
2022/01/29 00:13:11;;;;;;;8.55;4.95;;;;;;;1.24;91.25195;96723.02;;;;
2022/01/29 00:14:11;;;;;;;8.55;4.95;;;;;;;1.24;91.25195;96723.02;;;;
2022/01/29 00:15:12;;;;;;;8.55;4.95;;;;;;;1.24;91.25195;96723.02;;;;
2022/01/29 00:16:12;;;;;;;8.55;4.95;;;;;;;1.24;91.25195;96723.02;;;;
2022/01/29 00:17:13;;;;;;;8.55;4.95;;;;;;;1.24;91.25195;96723.02;;;;
2022/01/29 00:18:14;;;;;;;8.55;4.95;;;;;;;1.24;91.25195;96723.02;;;;
2022/01/29 00:19:14;;;;;;;8.55;4.95;;;;;;;1.24;91.25195;96723.02;;;;
2022/01/29 00:20:15;;;;;;;8.55;4.95;;;;;;;1.24;91.25195;96723.02;;;;
2022/01/29 00:21:15;;;;;;;9.849998;4.85;;;;;;;1.31;91.18262;96686.45;;;;
2022/01/29 00:22:16;;;;;;;9.849998;4.85;;;;;;;1.31;91.18262;96686.45;;;;
2022/01/29 00:23:16;;;;;;;9.849998;4.85;;;;;;;1.31;91.18262;96686.45;;;;
2022/01/29 00:24:17;;;;;;;9.849998;4.85;;;;;;;1.31;91.18262;96686.45;;;;
2022/01/29 00:25:18;;;;;;;9.849998;4.85;;;;;;;1.31;91.18262;96686.45;;;;
2022/01/29 00:26:21;;;;;;;9.849998;4.85;;;;;;;1.31;91.18262;96686.45;;;;
2022/01/29 00:27:22;;;;;;;9.849998;4.85;;;;;;;1.31;91.18262;96686.45;;;;
2022/01/29 00:28:23;;;;;;;9.849998;4.85;;;;;;;1.31;91.18262;96686.45;;;;
2022/01/29 00:29:24;;;;;;;9.849998;4.85;;;;;;;1.31;91.18262;96686.45;;;;
2022/01/29 00:30:30;;;;;;;9.849998;4.85;;;;;;;1.31;91.18262;96686.45;;;;
2022/01/29 00:31:31;;;;;;;9.849998;4.85;;;;;;;1.31;91.18262;96686.45;;;;
2022/01/29 00:32:32;;;;;;;7.349999;4.950001;;;;;;;1.37;90.84082;96662.33;;;;
2022/01/29 00:33:32;;;;;;;7.349999;4.950001;;;;;;;1.37;90.84082;96662.33;;;;
2022/01/29 00:34:33;;;;;;;7.349999;4.950001;;;;;;;1.37;90.84082;96662.33;;;;
2022/01/29 00:35:34;;;;;;;7.349999;4.950001;;;;;;;1.37;90.84082;96662.33;;;;
2022/01/29 00:36:34;;;;;;;7.349999;4.950001;;;;;;;1.37;90.84082;96662.33;;;;
2022/01/29 00:37:35;;;;;;;7.349999;4.950001;;;;;;;1.37;90.84082;96662.33;;;;
2022/01/29 00:38:36;;;;;;;7.349999;4.950001;;;;;;;1.37;90.84082;96662.33;;;;
2022/01/29 00:39:36;;;;;;;7.349999;4.950001;;;;;;;1.37;90.84082;96662.33;;;;
2022/01/29 00:40:37;;;;;;;7.349999;4.950001;;;;;;;1.37;90.84082;96662.33;;;;
2022/01/29 00:41:38;;;;;;;7.349999;4.950001;;;;;;;1.37;90.84082;96662.33;;;;
2022/01/29 00:42:38;;;;;;;8.900001;5;;;;;;;1.34;90.67871;96655.56;;;;
2022/01/29 00:43:39;;;;;;;8.900001;5;;;;;;;1.34;90.67871;96655.56;;;;
2022/01/29 00:44:39;;;;;;;8.900001;5;;;;;;;1.34;90.67871;96655.56;;;;
2022/01/29 00:45:40;;;;;;;8.900001;5;;;;;;;1.34;90.67871;96655.56;;;;
2022/01/29 00:46:41;;;;;;;8.900001;5;;;;;;;1.34;90.67871;96655.56;;;;
2022/01/29 00:47:42;;;;;;;8.900001;5;;;;;;;1.34;90.67871;96655.56;;;;
2022/01/29 00:48:42;;;;;;;8.900001;5;;;;;;;1.34;90.67871;96655.56;;;;
2022/01/29 00:49:43;;;;;;;8.900001;5;;;;;;;1.34;90.67871;96655.56;;;;
2022/01/29 00:50:44;;;;;;;8.900001;5;;;;;;;1.34;90.67871;96655.56;;;;
2022/01/29 00:51:45;;;;;;;8.900001;5;;;;;;;1.34;90.67871;96655.56;;;;
2022/01/29 00:52:47;;;;;;;8.900001;5;;;;;;;1.34;90.67871;96655.56;;;;
2022/01/29 00:53:47;;;;;;;9.3;4.900001;;;;;;;1.29;90.74121;96642.71;;;;
2022/01/29 00:54:48;;;;;;;9.3;4.900001;;;;;;;1.29;90.74121;96642.71;;;;
2022/01/29 00:55:49;;;;;;;9.3;4.900001;;;;;;;1.29;90.74121;96642.71;;;;
2022/01/29 00:56:49;;;;;;;9.3;4.900001;;;;;;;1.29;90.74121;96642.71;;;;
2022/01/29 00:57:50;;;;;;;9.3;4.900001;;;;;;;1.29;90.74121;96642.71;;;;
2022/01/29 00:58:50;;;;;;;9.3;4.900001;;;;;;;1.29;90.74121;96642.71;;;;
2022/01/29 00:59:51;;;;;;;9.3;4.900001;;;;;;;1.29;90.74121;96642.71;;;;
2022/01/29 01:00:52;;;;;;;9.3;4.900001;;;;;;;1.29;90.74121;96642.71;;;;
2022/01/29 01:01:52;;;;;;;9.3;4.900001;;;;;;;1.29;90.74121;96642.71;;;;
2022/01/29 01:02:53;;;;;;;9.3;4.900001;;;;;;;1.29;90.74121;96642.71;;;;
2022/01/29 01:03:53;;;;;;;9.799999;4.65;;;;;;;1.12;90.68457;96647.02;;;;
2022/01/29 01:04:54;;;;;;;9.799999;4.65;;;;;;;1.12;90.68457;96647.02;;;;
2022/01/29 01:05:54;;;;;;;9.799999;4.65;;;;;;;1.12;90.68457;96647.02;;;;
2022/01/29 01:06:55;;;;;;;9.799999;4.65;;;;;;;1.12;90.68457;96647.02;;;;
2022/01/29 01:07:55;;;;;;;9.799999;4.65;;;;;;;1.12;90.68457;96647.02;;;;
2022/01/29 01:08:56;;;;;;;9.799999;4.65;;;;;;;1.12;90.68457;96647.02;;;;
2022/01/29 01:09:56;;;;;;;9.799999;4.65;;;;;;;1.12;90.68457;96647.02;;;;
2022/01/29 01:10:58;;;;;;;9.799999;4.65;;;;;;;1.12;90.68457;96647.02;;;;
2022/01/29 01:11:59;;;;;;;9.799999;4.65;;;;;;;1.12;90.68457;96647.02;;;;
2022/01/29 01:13:00;;;;;;;9.799999;4.65;;;;;;;1.12;90.68457;96647.02;;;;
2022/01/29 01:14:00;;;;;;;9.799999;4.65;;;;;;;1.12;90.68457;96647.02;;;;
2022/01/29 01:15:01;;;;;;;9.1;4.799999;;;;;;;0.79;90.6875;96636.01;;;;
2022/01/29 01:16:04;;;;;;;9.1;4.799999;;;;;;;0.79;90.6875;96636.01;;;;
2022/01/29 01:17:05;;;;;;;9.1;4.799999;;;;;;;0.79;90.6875;96636.01;;;;
2022/01/29 01:18:06;;;;;;;9.1;4.799999;;;;;;;0.79;90.6875;96636.01;;;;
2022/01/29 01:19:06;;;;;;;9.1;4.799999;;;;;;;0.79;90.6875;96636.01;;;;
2022/01/29 01:20:07;;;;;;;9.1;4.799999;;;;;;;0.79;90.6875;96636.01;;;;
2022/01/29 01:21:08;;;;;;;9.1;4.799999;;;;;;;0.79;90.6875;96636.01;;;;
2022/01/29 01:22:09;;;;;;;9.1;4.799999;;;;;;;0.79;90.6875;96636.01;;;;
2022/01/29 01:23:09;;;;;;;9.1;4.799999;;;;;;;0.79;90.6875;96636.01;;;;
2022/01/29 01:24:10;;;;;;;9.1;4.799999;;;;;;;0.79;90.6875;96636.01;;;;
2022/01/29 01:25:10;;;;;;;9.1;4.799999;;;;;;;0.79;90.6875;96636.01;;;;
2022/01/29 01:26:11;;;;;;;9.949999;4.95;;;;;;;0.57;91.03516;96625.27;;;;
2022/01/29 01:27:12;;;;;;;9.949999;4.95;;;;;;;0.57;91.03516;96625.27;;;;
2022/01/29 01:28:12;;;;;;;9.949999;4.95;;;;;;;0.57;91.03516;96625.27;;;;
2022/01/29 01:29:13;;;;;;;9.949999;4.95;;;;;;;0.57;91.03516;96625.27;;;;
2022/01/29 01:30:14;;;;;;;9.949999;4.95;;;;;;;0.57;91.03516;96625.27;;;;
2022/01/29 01:31:14;;;;;;;9.949999;4.95;;;;;;;0.57;91.03516;96625.27;;;;
2022/01/29 01:32:15;;;;;;;9.949999;4.95;;;;;;;0.57;91.03516;96625.27;;;;
2022/01/29 01:33:15;;;;;;;9.949999;4.95;;;;;;;0.57;91.03516;96625.27;;;;
2022/01/29 01:34:18;;;;;;;9.949999;4.95;;;;;;;0.57;91.03516;96625.27;;;;
2022/01/29 01:35:23;;;;;;;9.949999;4.95;;;;;;;0.57;91.03516;96625.27;;;;
2022/01/29 01:36:25;;;;;;;9.599999;4.849999;;;;;;;0.53;91.23535;96595.06;;;;
2022/01/29 01:37:34;;;;;;;9.599999;4.849999;;;;;;;0.53;91.23535;96595.06;;;;
2022/01/29 01:38:41;;;;;;;9.599999;4.849999;;;;;;;0.53;91.23535;96595.06;;;;
2022/01/29 01:39:42;;;;;;;9.599999;4.849999;;;;;;;0.53;91.23535;96595.06;;;;
2022/01/29 01:40:47;;;;;;;9.599999;4.849999;;;;;;;0.53;91.23535;96595.06;;;;
2022/01/29 01:41:55;;;;;;;9.599999;4.849999;;;;;;;0.53;91.23535;96595.06;;;;
2022/01/29 01:43:00;;;;;;;9.599999;4.849999;;;;;;;0.53;91.23535;96595.06;;;;
2022/01/29 01:44:01;;;;;;;9.599999;4.849999;;;;;;;0.53;91.23535;96595.06;;;;
2022/01/29 01:45:04;;;;;;;9.599999;4.849999;;;;;;;0.53;91.23535;96595.06;;;;
2022/01/29 01:46:05;;;;;;;9.599999;4.849999;;;;;;;0.53;91.23535;96595.06;;;;
2022/01/29 01:47:06;;;;;;;7.45;4.95;;;;;;;0.61;91.21094;96568.63;;;;
2022/01/29 01:48:07;;;;;;;7.45;4.95;;;;;;;0.61;91.21094;96568.63;;;;
2022/01/29 01:49:07;;;;;;;7.45;4.95;;;;;;;0.61;91.21094;96568.63;;;;
2022/01/29 01:50:08;;;;;;;7.45;4.95;;;;;;;0.61;91.21094;96568.63;;;;
2022/01/29 01:51:09;;;;;;;7.45;4.95;;;;;;;0.61;91.21094;96568.63;;;;
2022/01/29 01:52:10;;;;;;;7.45;4.95;;;;;;;0.61;91.21094;96568.63;;;;
2022/01/29 01:53:12;;;;;;;7.45;4.95;;;;;;;0.61;91.21094;96568.63;;;;
2022/01/29 01:54:13;;;;;;;7.45;4.95;;;;;;;0.61;91.21094;96568.63;;;;
2022/01/29 01:55:14;;;;;;;7.45;4.95;;;;;;;0.61;91.21094;96568.63;;;;
2022/01/29 01:56:15;;;;;;;7.45;4.95;;;;;;;0.61;91.21094;96568.63;;;;
2022/01/29 01:57:17;;;;;;;11.2;5.1;;;;;;;0.74;90.9668;96557.68;;;;
2022/01/29 01:58:17;;;;;;;11.2;5.1;;;;;;;0.74;90.9668;96557.68;;;;
2022/01/29 01:59:18;;;;;;;11.2;5.1;;;;;;;0.74;90.9668;96557.68;;;;
2022/01/29 02:00:19;;;;;;;11.2;5.1;;;;;;;0.74;90.9668;96557.68;;;;
2022/01/29 02:01:20;;;;;;;11.2;5.1;;;;;;;0.74;90.9668;96557.68;;;;
2022/01/29 02:02:21;;;;;;;11.2;5.1;;;;;;;0.74;90.9668;96557.68;;;;
2022/01/29 02:03:21;;;;;;;11.2;5.1;;;;;;;0.74;90.9668;96557.68;;;;
2022/01/29 02:04:22;;;;;;;11.2;5.1;;;;;;;0.74;90.9668;96557.68;;;;
2022/01/29 02:05:22;;;;;;;11.2;5.1;;;;;;;0.74;90.9668;96557.68;;;;
2022/01/29 02:06:23;;;;;;;11.2;5.1;;;;;;;0.74;90.9668;96557.68;;;;
2022/01/29 02:07:24;;;;;;;11.2;5.1;;;;;;;0.74;90.9668;96557.68;;;;
2022/01/29 02:08:24;;;;;;;9.100001;4.900001;;;;;;;0.78;90.7793;96543.94;;;;
2022/01/29 02:09:25;;;;;;;9.100001;4.900001;;;;;;;0.78;90.7793;96543.94;;;;
2022/01/29 02:10:27;;;;;;;9.100001;4.900001;;;;;;;0.78;90.7793;96543.94;;;;
2022/01/29 02:11:28;;;;;;;9.100001;4.900001;;;;;;;0.78;90.7793;96543.94;;;;
2022/01/29 02:12:32;;;;;;;9.100001;4.900001;;;;;;;0.78;90.7793;96543.94;;;;
2022/01/29 02:13:44;;;;;;;9.100001;4.900001;;;;;;;0.78;90.7793;96543.94;;;;
2022/01/29 02:14:45;;;;;;;9.100001;4.900001;;;;;;;0.78;90.7793;96543.94;;;;
2022/01/29 02:15:47;;;;;;;9.100001;4.900001;;;;;;;0.78;90.7793;96543.94;;;;
2022/01/29 02:16:48;;;;;;;9.100001;4.900001;;;;;;;0.78;90.7793;96543.94;;;;
2022/01/29 02:17:48;;;;;;;9.100001;4.900001;;;;;;;0.78;90.7793;96543.94;;;;
2022/01/29 02:18:49;;;;;;;8.9;4.7;;;;;;;0.79;90.67676;96528.75;;;;
2022/01/29 02:19:50;;;;;;;8.9;4.7;;;;;;;0.79;90.67676;96528.75;;;;
2022/01/29 02:20:50;;;;;;;8.9;4.7;;;;;;;0.79;90.67676;96528.75;;;;
2022/01/29 02:21:52;;;;;;;8.9;4.7;;;;;;;0.79;90.67676;96528.75;;;;
2022/01/29 02:22:52;;;;;;;8.9;4.7;;;;;;;0.79;90.67676;96528.75;;;;
2022/01/29 02:23:53;;;;;;;8.9;4.7;;;;;;;0.79;90.67676;96528.75;;;;
2022/01/29 02:24:54;;;;;;;8.9;4.7;;;;;;;0.79;90.67676;96528.75;;;;
2022/01/29 02:25:54;;;;;;;8.9;4.7;;;;;;;0.79;90.67676;96528.75;;;;
2022/01/29 02:26:55;;;;;;;8.9;4.7;;;;;;;0.79;90.67676;96528.75;;;;
2022/01/29 02:27:55;;;;;;;8.9;4.7;;;;;;;0.79;90.67676;96528.75;;;;
2022/01/29 02:28:58;;;;;;;8.9;4.7;;;;;;;0.79;90.67676;96528.75;;;;
2022/01/29 02:29:59;;;;;;;7;4.900001;;;;;;;0.8;90.61621;96505.19;;;;
2022/01/29 02:31:02;;;;;;;7;4.900001;;;;;;;0.8;90.61621;96505.19;;;;
2022/01/29 02:32:03;;;;;;;7;4.900001;;;;;;;0.8;90.61621;96505.19;;;;
2022/01/29 02:33:05;;;;;;;7;4.900001;;;;;;;0.8;90.61621;96505.19;;;;
2022/01/29 02:34:08;;;;;;;7;4.900001;;;;;;;0.8;90.61621;96505.19;;;;
2022/01/29 02:35:09;;;;;;;7;4.900001;;;;;;;0.8;90.61621;96505.19;;;;
2022/01/29 02:36:09;;;;;;;7;4.900001;;;;;;;0.8;90.61621;96505.19;;;;
2022/01/29 02:37:10;;;;;;;7;4.900001;;;;;;;0.8;90.61621;96505.19;;;;
2022/01/29 02:38:10;;;;;;;7;4.900001;;;;;;;0.8;90.61621;96505.19;;;;
2022/01/29 02:39:13;;;;;;;7;4.900001;;;;;;;0.8;90.61621;96505.19;;;;
2022/01/29 02:40:16;;;;;;;9.299999;4.45;;;;;;;0.85;90.67871;96493.19;;;;
2022/01/29 02:41:18;;;;;;;9.299999;4.45;;;;;;;0.85;90.67871;96493.19;;;;
2022/01/29 02:42:19;;;;;;;9.299999;4.45;;;;;;;0.85;90.67871;96493.19;;;;
2022/01/29 02:43:20;;;;;;;9.299999;4.45;;;;;;;0.85;90.67871;96493.19;;;;
2022/01/29 02:44:23;;;;;;;9.299999;4.45;;;;;;;0.85;90.67871;96493.19;;;;
2022/01/29 02:45:26;;;;;;;9.299999;4.45;;;;;;;0.85;90.67871;96493.19;;;;
2022/01/29 02:46:30;;;;;;;9.299999;4.45;;;;;;;0.85;90.67871;96493.19;;;;
2022/01/29 02:47:33;;;;;;;9.299999;4.45;;;;;;;0.85;90.67871;96493.19;;;;
2022/01/29 02:48:33;;;;;;;9.299999;4.45;;;;;;;0.85;90.67871;96493.19;;;;
2022/01/29 02:49:34;;;;;;;9.299999;4.45;;;;;;;0.85;90.67871;96493.19;;;;
2022/01/29 02:50:34;;;;;;;7.5;4.400001;;;;;;;0.86;90.57617;96484.25;;;;
2022/01/29 02:51:36;;;;;;;7.5;4.400001;;;;;;;0.86;90.57617;96484.25;;;;
2022/01/29 02:52:43;;;;;;;7.5;4.400001;;;;;;;0.86;90.57617;96484.25;;;;
2022/01/29 02:53:43;;;;;;;7.5;4.400001;;;;;;;0.86;90.57617;96484.25;;;;
2022/01/29 02:54:44;;;;;;;7.5;4.400001;;;;;;;0.86;90.57617;96484.25;;;;
2022/01/29 02:55:45;;;;;;;7.5;4.400001;;;;;;;0.86;90.57617;96484.25;;;;
2022/01/29 02:56:45;;;;;;;7.5;4.400001;;;;;;;0.86;90.57617;96484.25;;;;
2022/01/29 02:57:47;;;;;;;7.5;4.400001;;;;;;;0.86;90.57617;96484.25;;;;
2022/01/29 02:58:47;;;;;;;7.5;4.400001;;;;;;;0.86;90.57617;96484.25;;;;
2022/01/29 02:59:49;;;;;;;7.5;4.400001;;;;;;;0.86;90.57617;96484.25;;;;
2022/01/29 03:00:49;;;;;;;7.5;4.400001;;;;;;;0.86;90.57617;96484.25;;;;
2022/01/29 03:01:50;;;;;;;9.199999;4.55;;;;;;;0.86;90.57617;96483.31;;;;
2022/01/29 03:02:50;;;;;;;9.199999;4.55;;;;;;;0.86;90.57617;96483.31;;;;
2022/01/29 03:03:51;;;;;;;9.199999;4.55;;;;;;;0.86;90.57617;96483.31;;;;
2022/01/29 03:04:52;;;;;;;9.199999;4.55;;;;;;;0.86;90.57617;96483.31;;;;
2022/01/29 03:05:52;;;;;;;9.199999;4.55;;;;;;;0.86;90.57617;96483.31;;;;
2022/01/29 03:06:53;;;;;;;9.199999;4.55;;;;;;;0.86;90.57617;96483.31;;;;
2022/01/29 03:07:53;;;;;;;9.199999;4.55;;;;;;;0.86;90.57617;96483.31;;;;
2022/01/29 03:08:54;;;;;;;9.199999;4.55;;;;;;;0.86;90.57617;96483.31;;;;
2022/01/29 03:09:54;;;;;;;9.199999;4.55;;;;;;;0.86;90.57617;96483.31;;;;
2022/01/29 03:10:55;;;;;;;9.199999;4.55;;;;;;;0.86;90.57617;96483.31;;;;
2022/01/29 03:11:56;;;;;;;7.8;4.25;;;;;;;0.87;90.52832;96486.33;;;;
2022/01/29 03:12:56;;;;;;;7.8;4.25;;;;;;;0.87;90.52832;96486.33;;;;
2022/01/29 03:13:57;;;;;;;7.8;4.25;;;;;;;0.87;90.52832;96486.33;;;;
2022/01/29 03:14:57;;;;;;;7.8;4.25;;;;;;;0.87;90.52832;96486.33;;;;
2022/01/29 03:15:58;;;;;;;7.8;4.25;;;;;;;0.87;90.52832;96486.33;;;;
2022/01/29 03:16:58;;;;;;;7.8;4.25;;;;;;;0.87;90.52832;96486.33;;;;
2022/01/29 03:17:59;;;;;;;7.8;4.25;;;;;;;0.87;90.52832;96486.33;;;;
2022/01/29 03:19:00;;;;;;;7.8;4.25;;;;;;;0.87;90.52832;96486.33;;;;
2022/01/29 03:20:00;;;;;;;7.8;4.25;;;;;;;0.87;90.52832;96486.33;;;;
2022/01/29 03:21:02;;;;;;;7.8;4.25;;;;;;;0.87;90.52832;96486.33;;;;
2022/01/29 03:22:03;;;;;;;7.8;4.25;;;;;;;0.87;90.52832;96486.33;;;;
2022/01/29 03:23:03;;;;;;;5.800002;4.15;;;;;;;0.83;90.5293;96453.96;;;;
2022/01/29 03:24:04;;;;;;;5.800002;4.15;;;;;;;0.83;90.5293;96453.96;;;;
2022/01/29 03:25:05;;;;;;;5.800002;4.15;;;;;;;0.83;90.5293;96453.96;;;;
2022/01/29 03:26:09;;;;;;;5.800002;4.15;;;;;;;0.83;90.5293;96453.96;;;;
2022/01/29 03:27:09;;;;;;;5.800002;4.15;;;;;;;0.83;90.5293;96453.96;;;;
2022/01/29 03:28:10;;;;;;;5.800002;4.15;;;;;;;0.83;90.5293;96453.96;;;;
2022/01/29 03:29:10;;;;;;;5.800002;4.15;;;;;;;0.83;90.5293;96453.96;;;;
2022/01/29 03:30:11;;;;;;;5.800002;4.15;;;;;;;0.83;90.5293;96453.96;;;;
2022/01/29 03:31:12;;;;;;;5.800002;4.15;;;;;;;0.83;90.5293;96453.96;;;;
2022/01/29 03:32:13;;;;;;;5.800002;4.15;;;;;;;0.83;90.5293;96453.96;;;;
2022/01/29 03:33:14;;;;;;;5.800002;4.15;;;;;;;0.83;90.5293;96453.96;;;;
2022/01/29 03:34:14;;;;;;;8.950001;4.6;;;;;;;0.77;90.55664;96455.89;;;;
2022/01/29 03:35:16;;;;;;;8.950001;4.6;;;;;;;0.77;90.55664;96455.89;;;;
2022/01/29 03:36:16;;;;;;;8.950001;4.6;;;;;;;0.77;90.55664;96455.89;;;;
2022/01/29 03:37:17;;;;;;;8.950001;4.6;;;;;;;0.77;90.55664;96455.89;;;;
2022/01/29 03:38:17;;;;;;;8.950001;4.6;;;;;;;0.77;90.55664;96455.89;;;;
2022/01/29 03:39:20;;;;;;;8.950001;4.6;;;;;;;0.77;90.55664;96455.89;;;;
2022/01/29 03:40:21;;;;;;;8.950001;4.6;;;;;;;0.77;90.55664;96455.89;;;;
2022/01/29 03:41:21;;;;;;;8.950001;4.6;;;;;;;0.77;90.55664;96455.89;;;;
2022/01/29 03:42:22;;;;;;;8.950001;4.6;;;;;;;0.77;90.55664;96455.89;;;;
2022/01/29 03:43:28;;;;;;;8.950001;4.6;;;;;;;0.77;90.55664;96455.89;;;;
2022/01/29 03:44:28;;;;;;;6.95;4.4;;;;;;;0.56;90.50195;96450.47;;;;
2022/01/29 03:45:29;;;;;;;6.95;4.4;;;;;;;0.56;90.50195;96450.47;;;;
2022/01/29 03:46:32;;;;;;;6.95;4.4;;;;;;;0.56;90.50195;96450.47;;;;
2022/01/29 03:47:32;;;;;;;6.95;4.4;;;;;;;0.56;90.50195;96450.47;;;;
2022/01/29 03:48:32;;;;;;;6.95;4.4;;;;;;;0.56;90.50195;96450.47;;;;
2022/01/29 03:49:33;;;;;;;6.95;4.4;;;;;;;0.56;90.50195;96450.47;;;;
2022/01/29 03:50:33;;;;;;;6.95;4.4;;;;;;;0.56;90.50195;96450.47;;;;
2022/01/29 03:51:35;;;;;;;6.95;4.4;;;;;;;0.56;90.50195;96450.47;;;;
2022/01/29 03:52:36;;;;;;;6.95;4.4;;;;;;;0.56;90.50195;96450.47;;;;
2022/01/29 03:53:36;;;;;;;6.95;4.4;;;;;;;0.56;90.50195;96450.47;;;;
2022/01/29 03:54:37;;;;;;;8.75;4.35;;;;;;;0.28;91.01465;96431.9;;;;
2022/01/29 03:55:37;;;;;;;8.75;4.35;;;;;;;0.28;91.01465;96431.9;;;;
2022/01/29 03:56:38;;;;;;;8.75;4.35;;;;;;;0.28;91.01465;96431.9;;;;
2022/01/29 03:57:39;;;;;;;8.75;4.35;;;;;;;0.28;91.01465;96431.9;;;;
2022/01/29 03:58:39;;;;;;;8.75;4.35;;;;;;;0.28;91.01465;96431.9;;;;
2022/01/29 03:59:40;;;;;;;8.75;4.35;;;;;;;0.28;91.01465;96431.9;;;;
2022/01/29 04:00:40;;;;;;;8.75;4.35;;;;;;;0.28;91.01465;96431.9;;;;
2022/01/29 04:01:41;;;;;;;8.75;4.35;;;;;;;0.28;91.01465;96431.9;;;;
2022/01/29 04:02:41;;;;;;;8.75;4.35;;;;;;;0.28;91.01465;96431.9;;;;
2022/01/29 04:03:42;;;;;;;8.75;4.35;;;;;;;0.28;91.01465;96431.9;;;;
2022/01/29 04:04:42;;;;;;;8.75;4.35;;;;;;;0.28;91.01465;96431.9;;;;
2022/01/29 04:05:43;;;;;;;5.999999;3.95;;;;;;;0.2;91.50781;96431.8;;;;
2022/01/29 04:06:43;;;;;;;5.999999;3.95;;;;;;;0.2;91.50781;96431.8;;;;
2022/01/29 04:07:44;;;;;;;5.999999;3.95;;;;;;;0.2;91.50781;96431.8;;;;
2022/01/29 04:08:45;;;;;;;5.999999;3.95;;;;;;;0.2;91.50781;96431.8;;;;
2022/01/29 04:09:49;;;;;;;5.999999;3.95;;;;;;;0.2;91.50781;96431.8;;;;
2022/01/29 04:10:50;;;;;;;5.999999;3.95;;;;;;;0.2;91.50781;96431.8;;;;
2022/01/29 04:11:51;;;;;;;5.999999;3.95;;;;;;;0.2;91.50781;96431.8;;;;
2022/01/29 04:12:53;;;;;;;5.999999;3.95;;;;;;;0.2;91.50781;96431.8;;;;
2022/01/29 04:13:53;;;;;;;5.999999;3.95;;;;;;;0.2;91.50781;96431.8;;;;
2022/01/29 04:14:57;;;;;;;5.999999;3.95;;;;;;;0.2;91.50781;96431.8;;;;
2022/01/29 04:15:57;;;;;;;8.599999;4.799999;;;;;;;0.28;91.61914;96412.83;;;;
2022/01/29 04:16:58;;;;;;;8.599999;4.799999;;;;;;;0.28;91.61914;96412.83;;;;
2022/01/29 04:17:58;;;;;;;8.599999;4.799999;;;;;;;0.28;91.61914;96412.83;;;;
2022/01/29 04:18:58;;;;;;;8.599999;4.799999;;;;;;;0.28;91.61914;96412.83;;;;
2022/01/29 04:19:59;;;;;;;8.599999;4.799999;;;;;;;0.28;91.61914;96412.83;;;;
2022/01/29 04:20:59;;;;;;;8.599999;4.799999;;;;;;;0.28;91.61914;96412.83;;;;
2022/01/29 04:22:00;;;;;;;8.599999;4.799999;;;;;;;0.28;91.61914;96412.83;;;;
2022/01/29 04:23:01;;;;;;;8.599999;4.799999;;;;;;;0.28;91.61914;96412.83;;;;
2022/01/29 04:24:01;;;;;;;8.599999;4.799999;;;;;;;0.28;91.61914;96412.83;;;;
2022/01/29 04:25:03;;;;;;;8.599999;4.799999;;;;;;;0.28;91.61914;96412.83;;;;
2022/01/29 04:26:04;;;;;;;8.599999;4.799999;;;;;;;0.28;91.61914;96412.83;;;;
2022/01/29 04:27:14;;;;;;;8.65;4.8;;;;;;;0.4;91.44531;96409.9;;;;
2022/01/29 04:28:15;;;;;;;8.65;4.8;;;;;;;0.4;91.44531;96409.9;;;;
2022/01/29 04:29:16;;;;;;;8.65;4.8;;;;;;;0.4;91.44531;96409.9;;;;
2022/01/29 04:30:27;;;;;;;8.65;4.8;;;;;;;0.4;91.44531;96409.9;;;;
2022/01/29 04:31:36;;;;;;;8.65;4.8;;;;;;;0.4;91.44531;96409.9;;;;
2022/01/29 04:33:28;;;;;;;8.65;4.8;;;;;;;0.4;91.44531;96409.9;;;;
2022/01/29 04:34:28;;;;;;;8.65;4.8;;;;;;;0.4;91.44531;96409.9;;;;
2022/01/29 04:35:29;;;;;;;8.65;4.8;;;;;;;0.4;91.44531;96409.9;;;;
2022/01/29 04:36:31;;;;;;;8.65;4.8;;;;;;;0.4;91.44531;96409.9;;;;
2022/01/29 04:37:31;;;;;;;7.3;4.400001;;;;;;;0.56;91.27246;96399.05;;;;
2022/01/29 04:38:32;;;;;;;7.3;4.400001;;;;;;;0.56;91.27246;96399.05;;;;
2022/01/29 04:39:33;;;;;;;7.3;4.400001;;;;;;;0.56;91.27246;96399.05;;;;
2022/01/29 04:40:35;;;;;;;7.3;4.400001;;;;;;;0.56;91.27246;96399.05;;;;
2022/01/29 04:41:36;;;;;;;7.3;4.400001;;;;;;;0.56;91.27246;96399.05;;;;
2022/01/29 04:42:37;;;;;;;7.3;4.400001;;;;;;;0.56;91.27246;96399.05;;;;
2022/01/29 04:43:37;;;;;;;7.3;4.400001;;;;;;;0.56;91.27246;96399.05;;;;
2022/01/29 04:44:38;;;;;;;7.3;4.400001;;;;;;;0.56;91.27246;96399.05;;;;
2022/01/29 04:45:38;;;;;;;7.3;4.400001;;;;;;;0.56;91.27246;96399.05;;;;
2022/01/29 04:46:40;;;;;;;7.3;4.400001;;;;;;;0.56;91.27246;96399.05;;;;
2022/01/29 04:47:40;;;;;;;7.3;4.400001;;;;;;;0.56;91.27246;96399.05;;;;
2022/01/29 04:48:41;;;;;;;7.9;4.75;;;;;;;0.64;90.92383;96393.85;;;;
2022/01/29 04:49:41;;;;;;;7.9;4.75;;;;;;;0.64;90.92383;96393.85;;;;
2022/01/29 04:50:42;;;;;;;7.9;4.75;;;;;;;0.64;90.92383;96393.85;;;;
2022/01/29 04:51:42;;;;;;;7.9;4.75;;;;;;;0.64;90.92383;96393.85;;;;
2022/01/29 04:52:43;;;;;;;7.9;4.75;;;;;;;0.64;90.92383;96393.85;;;;
2022/01/29 04:53:43;;;;;;;7.9;4.75;;;;;;;0.64;90.92383;96393.85;;;;
2022/01/29 04:54:44;;;;;;;7.9;4.75;;;;;;;0.64;90.92383;96393.85;;;;
2022/01/29 04:55:44;;;;;;;7.9;4.75;;;;;;;0.64;90.92383;96393.85;;;;
2022/01/29 04:56:45;;;;;;;7.9;4.75;;;;;;;0.64;90.92383;96393.85;;;;
2022/01/29 04:57:46;;;;;;;7.9;4.75;;;;;;;0.64;90.92383;96393.85;;;;
2022/01/29 04:58:46;;;;;;;7.199999;4.6;;;;;;;0.67;91.02539;96396.62;;;;
2022/01/29 04:59:47;;;;;;;7.199999;4.6;;;;;;;0.67;91.02539;96396.62;;;;
2022/01/29 05:00:47;;;;;;;7.199999;4.6;;;;;;;0.67;91.02539;96396.62;;;;
2022/01/29 05:01:48;;;;;;;7.199999;4.6;;;;;;;0.67;91.02539;96396.62;;;;
2022/01/29 05:02:48;;;;;;;7.199999;4.6;;;;;;;0.67;91.02539;96396.62;;;;
2022/01/29 05:03:50;;;;;;;7.199999;4.6;;;;;;;0.67;91.02539;96396.62;;;;
2022/01/29 05:04:50;;;;;;;7.199999;4.6;;;;;;;0.67;91.02539;96396.62;;;;
2022/01/29 05:05:51;;;;;;;7.199999;4.6;;;;;;;0.67;91.02539;96396.62;;;;
2022/01/29 05:06:51;;;;;;;7.199999;4.6;;;;;;;0.67;91.02539;96396.62;;;;
2022/01/29 05:07:52;;;;;;;7.199999;4.6;;;;;;;0.67;91.02539;96396.62;;;;
2022/01/29 05:08:52;;;;;;;7.199999;4.6;;;;;;;0.67;91.02539;96396.62;;;;
2022/01/29 05:09:53;;;;;;;8.75;4.75;;;;;;;0.72;91.08789;96402.84;;;;
2022/01/29 05:10:54;;;;;;;8.75;4.75;;;;;;;0.72;91.08789;96402.84;;;;
2022/01/29 05:11:56;;;;;;;8.75;4.75;;;;;;;0.72;91.08789;96402.84;;;;
2022/01/29 05:13:00;;;;;;;8.75;4.75;;;;;;;0.72;91.08789;96402.84;;;;
2022/01/29 05:14:04;;;;;;;8.75;4.75;;;;;;;0.72;91.08789;96402.84;;;;
2022/01/29 05:15:10;;;;;;;8.75;4.75;;;;;;;0.72;91.08789;96402.84;;;;
2022/01/29 05:16:34;;;;;;;8.75;4.75;;;;;;;0.72;91.08789;96402.84;;;;
2022/01/29 05:28:00;;;;;;;7.7;4.2;;;;;;;0.82;91.05566;96397.38;;;;
2022/01/29 05:29:01;;;;;;;7.7;4.2;;;;;;;0.82;91.05566;96397.38;;;;
2022/01/29 05:30:02;;;;;;;7.7;4.2;;;;;;;0.82;91.05566;96397.38;;;;
2022/01/29 05:31:03;;;;;;;9.650001;4.8;;;;;;;0.72;90.73438;96388.22;;;;
2022/01/29 05:32:04;;;;;;;9.650001;4.8;;;;;;;0.72;90.73438;96388.22;;;;
2022/01/29 05:33:06;;;;;;;9.650001;4.8;;;;;;;0.72;90.73438;96388.22;;;;
2022/01/29 05:34:06;;;;;;;9.650001;4.8;;;;;;;0.72;90.73438;96388.22;;;;
2022/01/29 05:35:07;;;;;;;9.650001;4.8;;;;;;;0.72;90.73438;96388.22;;;;
2022/01/29 05:36:08;;;;;;;9.650001;4.8;;;;;;;0.72;90.73438;96388.22;;;;
2022/01/29 05:37:09;;;;;;;9.650001;4.8;;;;;;;0.72;90.73438;96388.22;;;;
2022/01/29 05:38:09;;;;;;;9.650001;4.8;;;;;;;0.72;90.73438;96388.22;;;;
2022/01/29 05:39:10;;;;;;;9.650001;4.8;;;;;;;0.72;90.73438;96388.22;;;;
2022/01/29 05:40:10;;;;;;;9.650001;4.8;;;;;;;0.72;90.73438;96388.22;;;;
2022/01/29 05:41:11;;;;;;;9.650001;4.8;;;;;;;0.72;90.73438;96388.22;;;;
2022/01/29 05:42:12;;;;;;;7.95;4.25;;;;;;;0.56;91.03516;96375.98;;;;
2022/01/29 05:43:12;;;;;;;7.95;4.25;;;;;;;0.56;91.03516;96375.98;;;;
2022/01/29 05:44:13;;;;;;;7.95;4.25;;;;;;;0.56;91.03516;96375.98;;;;
2022/01/29 05:45:14;;;;;;;7.95;4.25;;;;;;;0.56;91.03516;96375.98;;;;
2022/01/29 05:46:14;;;;;;;7.95;4.25;;;;;;;0.56;91.03516;96375.98;;;;
2022/01/29 05:47:16;;;;;;;7.95;4.25;;;;;;;0.56;91.03516;96375.98;;;;
2022/01/29 05:48:17;;;;;;;7.95;4.25;;;;;;;0.56;91.03516;96375.98;;;;
2022/01/29 05:49:17;;;;;;;7.95;4.25;;;;;;;0.56;91.03516;96375.98;;;;
2022/01/29 05:50:18;;;;;;;7.95;4.25;;;;;;;0.56;91.03516;96375.98;;;;
2022/01/29 05:51:18;;;;;;;7.95;4.25;;;;;;;0.56;91.03516;96375.98;;;;
2022/01/29 05:52:19;;;;;;;7.299999;4.35;;;;;;;0.44;91.1748;96366.97;;;;